KCEW/CEW METAR and TAF weather

Enter ICAO airport designator
Station Type Date Time Source
KCEW METAR 2022/06/25 22:53 UTC NOAA

KCEW 252253Z AUTO 10003KT 9SM CLR 27/24 A3002 RMK AO2 SLP164 T02670244 $


Station Type Date Time Source
KCEW Decoded METAR 2022/06/25 22:53 UTC NOAA

CRESTVIEW SIKES AIRPORT, FL, United States (KCEW) 30-46N 086-31W 55M
Jun 25, 2022 - 06:53 PM EDT / 2022.06.25 2253 UTC
Wind: from the E (100 degrees) at 3 MPH (3 KT):0
Visibility: 9 mile(s):0
Sky conditions: clear
Temperature: 80.1 F (26.7 C)
Dew Point: 75.9 F (24.4 C)
Relative Humidity: 87%
Pressure (altimeter): 30.02 in. Hg (1016 hPa)
ob: KCEW 252253Z AUTO 10003KT 9SM CLR 27/24 A3002 RMK AO2 SLP164 T02670244
cycle: 23

Station Type Date Time Source
KCEW TAF UTC NOAA

Error!

Example: see airport list